createdAt,value
2022-11-12T00:00:59.417Z,9.10
2022-11-12T00:03:27.236Z,7.03
2022-11-12T00:05:54.790Z,10.18
2022-11-12T00:08:22.155Z,11.02
2022-11-12T00:10:49.759Z,8.02
2022-11-12T00:13:17.517Z,5.95
2022-11-12T00:15:46.040Z,6.25
2022-11-12T00:18:15.810Z,5.63
2022-11-12T00:20:43.409Z,5.63
2022-11-12T00:23:10.675Z,7.30
2022-11-12T00:25:37.984Z,5.25
2022-11-12T00:28:06.469Z,7.80
2022-11-12T00:30:33.894Z,5.82
2022-11-12T00:33:02.910Z,5.40
2022-11-12T00:35:32.069Z,8.23
2022-11-12T00:37:59.366Z,7.25
2022-11-12T00:40:26.830Z,3.85
2022-11-12T00:42:54.362Z,5.18
2022-11-12T00:45:21.998Z,7.70
2022-11-12T00:47:49.299Z,6.68
2022-11-12T00:50:16.527Z,8.85
2022-11-12T00:52:43.965Z,6.95
2022-11-12T00:55:11.280Z,9.05
2022-11-12T00:57:38.608Z,9.38
2022-11-12T01:00:08.948Z,9.93
2022-11-12T01:02:42.347Z,6.90
2022-11-12T01:05:10.993Z,9.32
2022-11-12T01:07:38.289Z,13.35
2022-11-12T01:10:05.795Z,10.00
2022-11-12T01:12:33.163Z,8.77
2022-11-12T01:15:00.540Z,7.78
2022-11-12T01:17:27.894Z,8.15
2022-11-12T01:19:55.149Z,14.07
2022-11-12T01:22:22.413Z,19.10
2022-11-12T01:24:49.678Z,11.50
2022-11-12T01:27:16.921Z,11.88
2022-11-12T01:29:44.219Z,10.82
2022-11-12T01:32:11.469Z,11.55
2022-11-12T01:34:38.725Z,11.32
2022-11-12T01:37:06.029Z,11.30
2022-11-12T01:39:33.353Z,8.70
2022-11-12T01:42:00.596Z,12.40
2022-11-12T01:44:31.385Z,9.95
2022-11-12T01:47:12.202Z,8.95
2022-11-12T01:49:44.309Z,9.80
2022-11-12T01:52:17.599Z,11.80
2022-11-12T01:54:47.125Z,10.43
2022-11-12T01:57:15.520Z,11.18
2022-11-12T01:59:44.778Z,10.90
2022-11-12T02:02:12.246Z,13.02
2022-11-12T02:04:40.614Z,15.90
2022-11-12T02:07:08.574Z,12.85
2022-11-12T02:09:36.114Z,13.70
2022-11-12T02:12:03.409Z,12.25
2022-11-12T02:14:31.137Z,7.47
2022-11-12T02:16:59.581Z,10.07
2022-11-12T02:19:26.989Z,14.27
2022-11-12T02:21:54.246Z,11.60
2022-11-12T02:24:21.514Z,17.17
2022-11-12T02:26:51.446Z,12.32
2022-11-12T02:29:18.793Z,11.95
2022-11-12T02:31:46.036Z,15.60
2022-11-12T02:34:13.284Z,14.25
2022-11-12T02:36:40.784Z,9.75
2022-11-12T02:39:08.480Z,13.07
2022-11-12T02:41:35.732Z,12.73
2022-11-12T02:44:02.959Z,14.43
2022-11-12T02:46:30.209Z,17.52
2022-11-12T02:48:57.442Z,13.25
2022-11-12T02:51:24.695Z,15.57
2022-11-12T02:53:51.976Z,10.15
2022-11-12T02:56:19.221Z,12.35
2022-11-12T02:58:46.464Z,14.50
2022-11-12T03:01:13.824Z,14.32
2022-11-12T03:03:41.190Z,14.77
2022-11-12T03:06:08.674Z,10.57
2022-11-12T03:08:36.001Z,13.20
2022-11-12T03:11:13.486Z,16.30
2022-11-12T03:13:40.801Z,13.82
2022-11-12T03:16:08.123Z,15.75
2022-11-12T03:18:35.448Z,13.63
2022-11-12T03:21:02.664Z,11.38
2022-11-12T03:23:29.950Z,14.52
2022-11-12T03:25:57.397Z,17.95
2022-11-12T03:28:24.976Z,9.75
2022-11-12T03:30:52.561Z,10.95
2022-11-12T03:33:19.799Z,16.33
2022-11-12T03:35:47.046Z,14.23
2022-11-12T03:38:14.285Z,13.48
2022-11-12T03:40:41.545Z,10.63
2022-11-12T03:43:09.388Z,12.40
2022-11-12T03:45:36.623Z,9.77
2022-11-12T03:48:03.968Z,12.07
2022-11-12T03:50:31.310Z,14.20
2022-11-12T03:52:59.969Z,10.75
2022-11-12T03:55:28.066Z,16.05
2022-11-12T03:57:55.614Z,9.40
2022-11-12T04:00:23.722Z,16.85
2022-11-12T04:02:51.481Z,12.82
2022-11-12T04:05:37.409Z,13.93
2022-11-12T04:08:25.355Z,14.15
2022-11-12T04:10:53.215Z,13.40
2022-11-12T04:13:29.625Z,9.98
2022-11-12T04:16:22.938Z,11.68
2022-11-12T04:19:10.568Z,8.10
2022-11-12T04:21:51.372Z,12.73
2022-11-12T04:24:37.403Z,13.98
2022-11-12T04:27:04.712Z,11.15
2022-11-12T04:29:50.699Z,15.70
2022-11-12T04:32:18.029Z,13.85
2022-11-12T04:34:45.486Z,10.52
2022-11-12T04:37:12.818Z,15.68
2022-11-12T04:39:40.058Z,12.18
2022-11-12T04:42:28.014Z,16.33
2022-11-12T04:45:03.956Z,13.52
2022-11-12T04:47:35.915Z,11.77
2022-11-12T04:50:04.759Z,13.18
2022-11-12T04:52:32.391Z,12.43
2022-11-12T04:54:59.747Z,13.40
2022-11-12T04:57:27.113Z,13.38
2022-11-12T04:59:54.393Z,10.45
2022-11-12T05:02:21.800Z,8.95
2022-11-12T05:04:49.440Z,9.90
2022-11-12T05:07:16.951Z,9.32
2022-11-12T05:09:44.720Z,9.90
2022-11-12T05:12:12.244Z,11.48
2022-11-12T05:14:39.536Z,10.13
2022-11-12T05:17:06.903Z,10.43
2022-11-12T05:19:35.235Z,13.95
2022-11-12T05:22:06.009Z,13.85
2022-11-12T05:24:43.143Z,11.82
2022-11-12T05:27:13.031Z,12.55
2022-11-12T05:29:40.680Z,11.13
2022-11-12T05:32:08.628Z,8.50
2022-11-12T05:34:35.906Z,15.45
2022-11-12T05:37:04.003Z,9.38
2022-11-12T05:39:31.375Z,15.75
2022-11-12T05:42:12.323Z,14.35
2022-11-12T05:44:40.560Z,11.55
2022-11-12T05:47:07.824Z,9.27
2022-11-12T05:49:35.214Z,8.95
2022-11-12T05:52:03.333Z,9.98
2022-11-12T05:54:30.591Z,6.78
2022-11-12T05:56:57.837Z,11.45
2022-11-12T05:59:25.097Z,14.93
2022-11-12T06:02:00.050Z,9.77
2022-11-12T06:04:27.927Z,11.07
2022-11-12T06:06:55.216Z,11.93
2022-11-12T06:09:22.526Z,13.77
2022-11-12T06:11:50.146Z,11.48
2022-11-12T06:14:17.398Z,11.38
2022-11-12T06:16:44.715Z,9.43
2022-11-12T06:19:14.166Z,9.93
2022-11-12T06:21:41.413Z,6.60
2022-11-12T06:24:09.083Z,14.07
2022-11-12T06:26:38.076Z,12.27
2022-11-12T06:29:05.373Z,14.73
2022-11-12T06:31:32.642Z,11.85
2022-11-12T06:33:59.933Z,14.55
2022-11-12T06:36:27.150Z,11.52
2022-11-12T06:38:54.426Z,9.05
2022-11-12T06:41:21.705Z,10.30
2022-11-12T06:43:48.972Z,11.68
2022-11-12T06:46:17.284Z,8.65
2022-11-12T06:48:44.596Z,13.90
2022-11-12T06:51:17.008Z,11.35
2022-11-12T06:53:44.314Z,10.93
2022-11-12T06:56:11.571Z,8.27
2022-11-12T06:58:38.976Z,13.20
2022-11-12T07:01:11.233Z,8.73
2022-11-12T07:03:39.630Z,7.45
2022-11-12T07:06:08.006Z,9.93
2022-11-12T07:08:35.661Z,7.18
2022-11-12T07:11:03.027Z,10.70
2022-11-12T07:13:31.414Z,10.40
2022-11-12T07:15:59.784Z,10.10
2022-11-12T07:18:27.552Z,10.52
2022-11-12T07:21:05.770Z,8.13
2022-11-12T07:23:33.894Z,8.27
2022-11-12T07:26:02.189Z,10.65
2022-11-12T07:28:30.091Z,8.25
2022-11-12T07:31:01.382Z,9.65
2022-11-12T07:33:29.095Z,10.35
2022-11-12T07:36:00.223Z,9.63
2022-11-12T07:41:01.484Z,9.23
2022-11-12T07:43:29.756Z,9.20
2022-11-12T07:46:10.089Z,5.32
2022-11-12T07:48:38.139Z,12.52
2022-11-12T07:51:05.541Z,9.30
2022-11-12T07:53:32.923Z,9.10
2022-11-12T07:56:01.004Z,10.18
2022-11-12T07:58:29.374Z,11.52
2022-11-12T08:00:56.904Z,9.32
2022-11-12T08:03:24.748Z,10.10
2022-11-12T08:05:51.967Z,7.15
2022-11-12T08:08:19.260Z,9.43
2022-11-12T08:10:46.528Z,10.48
2022-11-12T08:13:13.966Z,9.95
2022-11-12T08:15:41.203Z,5.22
2022-11-12T08:18:08.484Z,13.82
2022-11-12T08:20:35.755Z,12.82
2022-11-12T08:23:03.051Z,11.18
2022-11-12T08:25:30.306Z,9.10
2022-11-12T08:27:58.468Z,11.32
2022-11-12T08:30:26.528Z,9.25
2022-11-12T08:33:07.803Z,12.30
2022-11-12T08:38:07.845Z,7.65
2022-11-12T08:40:35.198Z,8.43
2022-11-12T08:43:04.112Z,10.55
2022-11-12T08:45:33.059Z,8.23
2022-11-12T08:48:00.958Z,15.43
2022-11-12T08:50:28.417Z,9.93
2022-11-12T08:53:00.429Z,16.38
2022-11-12T08:55:27.668Z,12.57
2022-11-12T08:57:54.955Z,15.10
2022-11-12T09:00:22.777Z,18.30
2022-11-12T09:02:50.054Z,10.98
2022-11-12T09:05:17.296Z,14.55
2022-11-12T09:07:49.869Z,9.15
2022-11-12T09:10:18.096Z,9.30
2022-11-12T09:12:45.375Z,16.33
2022-11-12T09:18:00.854Z,14.88
2022-11-12T09:20:28.901Z,10.63
2022-11-12T09:23:00.374Z,9.80
2022-11-12T09:25:27.950Z,9.52
2022-11-12T09:27:58.199Z,8.95
2022-11-12T09:30:25.521Z,10.20
2022-11-12T09:32:57.813Z,8.63
2022-11-12T09:35:25.063Z,10.63
2022-11-12T09:37:52.297Z,10.13
2022-11-12T09:40:20.613Z,10.73
2022-11-12T09:42:53.353Z,13.73
2022-11-12T09:45:27.617Z,13.52
2022-11-12T09:47:59.873Z,9.05
2022-11-12T09:50:29.492Z,11.43
2022-11-12T09:53:13.092Z,7.85
2022-11-12T09:55:43.152Z,5.30
2022-11-12T09:58:12.481Z,6.60
2022-11-12T10:00:44.993Z,11.93
2022-11-12T10:03:21.458Z,10.93
2022-11-12T10:05:50.047Z,10.18
2022-11-12T10:08:26.670Z,9.30
2022-11-12T10:11:06.825Z,6.95
2022-11-12T10:14:00.330Z,8.65
2022-11-12T10:16:45.355Z,12.85
2022-11-12T10:19:12.580Z,9.15
2022-11-12T10:21:46.002Z,10.52
2022-11-12T10:24:13.443Z,9.13
2022-11-12T10:26:41.362Z,4.93
2022-11-12T10:29:08.595Z,7.65
2022-11-12T10:31:35.817Z,6.78
2022-11-12T10:34:23.374Z,10.82
2022-11-12T10:37:05.308Z,9.27
2022-11-12T10:39:32.662Z,8.73
2022-11-12T10:42:04.129Z,11.52
2022-11-12T10:44:31.368Z,7.25
2022-11-12T10:47:17.368Z,9.25
2022-11-12T10:49:44.652Z,8.10
2022-11-12T10:52:22.674Z,9.55
2022-11-12T10:54:54.990Z,9.23
2022-11-12T10:57:24.740Z,7.53
2022-11-12T11:00:19.206Z,8.20
2022-11-12T11:02:51.531Z,10.80
2022-11-12T11:05:38.465Z,9.07
2022-11-12T11:08:06.697Z,10.32
2022-11-12T11:10:35.149Z,9.55
2022-11-12T11:13:19.657Z,8.98
2022-11-12T11:15:59.715Z,8.15
2022-11-12T11:18:27.708Z,9.02
2022-11-12T11:21:15.475Z,9.30
2022-11-12T11:23:57.944Z,9.30
2022-11-12T11:26:54.012Z,7.30
2022-11-12T11:29:21.244Z,12.82
2022-11-12T11:31:48.543Z,8.45
2022-11-12T11:34:18.782Z,7.20
2022-11-12T11:36:46.025Z,21.90
2022-11-12T11:39:13.292Z,9.55
2022-11-12T11:41:51.488Z,9.05
2022-11-12T11:44:30.934Z,10.73
2022-11-12T11:47:15.064Z,6.85
2022-11-12T11:49:55.181Z,9.65
2022-11-12T11:52:25.508Z,10.75
2022-11-12T11:55:01.876Z,11.17
2022-11-12T11:57:55.233Z,10.48
2022-11-12T12:00:23.851Z,10.43
2022-11-12T12:03:10.130Z,5.90
2022-11-12T12:05:54.394Z,8.18
2022-11-12T12:08:37.106Z,8.18
2022-11-12T12:11:13.837Z,12.40
2022-11-12T12:13:47.316Z,7.97
2022-11-12T12:16:26.816Z,8.02
2022-11-12T12:19:03.388Z,8.18
2022-11-12T12:21:32.256Z,11.00
2022-11-12T12:24:02.936Z,9.15
2022-11-12T12:26:49.661Z,10.27
2022-11-12T12:29:16.889Z,10.18
2022-11-12T12:31:50.335Z,12.02
2022-11-12T12:34:25.831Z,13.13
2022-11-12T12:36:55.724Z,10.40
2022-11-12T12:39:52.352Z,9.88
2022-11-12T12:42:22.489Z,8.48
2022-11-12T12:45:05.977Z,7.85
2022-11-12T12:47:37.772Z,6.70
2022-11-12T12:50:07.999Z,9.98
2022-11-12T12:52:55.472Z,9.77
2022-11-12T12:55:58.338Z,9.88
2022-11-12T12:58:32.614Z,12.23
2022-11-12T13:01:02.200Z,15.23
2022-11-12T13:03:44.776Z,9.35
2022-11-12T13:06:24.207Z,11.77
2022-11-12T13:09:09.005Z,9.50
2022-11-12T13:12:00.783Z,10.82
2022-11-12T13:14:40.310Z,13.07
2022-11-12T13:17:07.665Z,11.75
2022-11-12T13:19:45.923Z,9.63
2022-11-12T13:22:19.313Z,12.75
2022-11-12T13:25:02.049Z,10.23
2022-11-12T13:27:41.717Z,11.82
2022-11-12T13:30:09.653Z,8.50
2022-11-12T13:32:44.761Z,15.57
2022-11-12T13:35:14.912Z,12.85
2022-11-12T13:37:44.941Z,18.23
2022-11-12T13:40:17.931Z,16.77
2022-11-12T13:42:48.391Z,15.18
2022-11-12T13:45:21.274Z,9.18
2022-11-12T13:47:49.302Z,11.57
2022-11-12T13:50:20.903Z,10.57
2022-11-12T13:52:48.697Z,10.98
2022-11-12T13:55:16.011Z,17.77
2022-11-12T13:57:49.224Z,15.95
2022-11-12T14:00:21.681Z,18.65
2022-11-12T14:02:51.245Z,15.70
2022-11-12T14:05:20.137Z,12.77
2022-11-12T14:08:06.036Z,16.33
2022-11-12T14:10:46.464Z,16.20
2022-11-12T14:13:13.764Z,17.05
2022-11-12T14:15:59.580Z,15.15
2022-11-12T14:19:05.282Z,13.90
2022-11-12T14:21:33.656Z,15.13
2022-11-12T14:24:02.636Z,16.92
2022-11-12T14:26:37.713Z,16.67
2022-11-12T14:29:05.384Z,17.98
2022-11-12T14:31:32.846Z,19.00
2022-11-12T14:34:18.717Z,14.45
2022-11-12T14:36:47.054Z,15.50
2022-11-12T14:39:14.601Z,13.48
2022-11-12T14:41:46.096Z,17.90
2022-11-12T14:44:18.259Z,17.02
2022-11-12T14:46:53.941Z,16.92
2022-11-12T14:49:44.679Z,26.73
2022-11-12T14:52:18.230Z,19.23
2022-11-12T14:54:48.710Z,23.13
2022-11-12T14:57:21.215Z,18.92
2022-11-12T14:59:48.647Z,21.58
2022-11-12T15:02:49.865Z,22.17
2022-11-12T15:05:12.872Z,18.70
2022-11-12T15:08:00.030Z,19.00
2022-11-12T15:10:41.176Z,14.77
2022-11-12T15:13:13.304Z,21.10
2022-11-12T15:15:57.665Z,18.20
2022-11-12T15:18:26.700Z,13.45
2022-11-12T15:21:12.564Z,18.67
2022-11-12T15:23:53.998Z,16.08
2022-11-12T15:26:25.969Z,14.90
2022-11-12T15:28:59.992Z,17.92
2022-11-12T15:31:27.323Z,16.73
2022-11-12T15:33:56.404Z,16.58
2022-11-12T15:36:24.748Z,17.30
2022-11-12T15:38:53.213Z,13.20
2022-11-12T15:41:27.891Z,21.83
2022-11-12T15:43:55.155Z,18.92
2022-11-12T15:46:22.625Z,16.92
2022-11-12T15:48:56.025Z,12.88
2022-11-12T15:51:23.888Z,12.90
2022-11-12T15:53:51.152Z,18.38
2022-11-12T15:56:22.287Z,13.13
2022-11-12T16:01:16.795Z,14.10
2022-11-12T16:03:44.074Z,14.05
2022-11-12T16:06:12.543Z,20.77
2022-11-12T16:08:39.797Z,17.40
2022-11-12T16:11:27.182Z,14.65
2022-11-12T16:13:54.506Z,22.15
2022-11-12T16:16:21.739Z,14.38
2022-11-12T16:18:49.081Z,15.23
2022-11-12T16:21:20.668Z,17.23
2022-11-12T16:23:48.336Z,17.08
2022-11-12T16:26:17.054Z,17.50
2022-11-12T16:28:44.320Z,18.30
2022-11-12T16:31:11.863Z,15.55
2022-11-12T16:33:39.345Z,14.90
2022-11-12T16:36:13.863Z,12.18
2022-11-12T16:38:41.148Z,21.30
2022-11-12T16:41:12.813Z,21.40
2022-11-12T16:43:40.305Z,20.98
2022-11-12T16:46:14.171Z,15.68
2022-11-12T16:48:41.504Z,18.88
2022-11-12T16:51:12.804Z,19.80
2022-11-12T16:53:40.203Z,16.27
2022-11-12T16:56:11.383Z,19.13
2022-11-12T17:01:07.700Z,20.23
2022-11-12T17:03:34.947Z,17.70
2022-11-12T17:06:03.210Z,15.55
2022-11-12T17:08:33.894Z,23.98
2022-11-12T17:11:06.292Z,19.15
2022-11-12T17:13:33.575Z,22.40
2022-11-12T17:16:00.814Z,18.48
2022-11-12T17:18:30.406Z,19.63
2022-11-12T17:20:58.052Z,14.65
2022-11-12T17:23:26.548Z,16.40
2022-11-12T17:26:01.763Z,23.70
2022-11-12T17:28:31.071Z,18.77
2022-11-12T17:31:18.144Z,18.75
2022-11-12T17:33:46.947Z,17.85
2022-11-12T17:36:19.103Z,20.00
2022-11-12T17:38:46.417Z,20.92
2022-11-12T17:41:14.075Z,15.40
2022-11-12T17:43:41.510Z,14.98
2022-11-12T17:46:09.573Z,18.17
2022-11-12T17:48:37.614Z,17.67
2022-11-12T17:51:12.484Z,19.45
2022-11-12T17:53:40.037Z,45.15
2022-11-12T17:56:09.056Z,22.23
2022-11-12T17:58:36.395Z,28.52
2022-11-12T18:01:06.644Z,24.52
2022-11-12T18:03:33.981Z,19.70
2022-11-12T18:06:01.458Z,18.42
2022-11-12T18:08:28.756Z,18.42
2022-11-12T18:10:56.459Z,23.25
2022-11-12T18:13:23.804Z,19.67
2022-11-12T18:15:51.139Z,20.95
2022-11-12T18:18:19.832Z,18.92
2022-11-12T18:20:47.159Z,26.25
2022-11-12T18:23:14.424Z,17.77
2022-11-12T18:25:41.748Z,21.90
2022-11-12T18:28:09.230Z,24.60
2022-11-12T18:30:36.737Z,46.97
2022-11-12T18:33:04.104Z,20.92
2022-11-12T18:35:31.383Z,18.13
2022-11-12T18:37:58.652Z,20.40
2022-11-12T18:40:25.955Z,21.35
2022-11-12T18:42:53.977Z,18.80
2022-11-12T18:45:21.320Z,20.33
2022-11-12T18:47:48.653Z,23.88
2022-11-12T18:50:16.016Z,21.92
2022-11-12T18:52:43.601Z,20.90
2022-11-12T18:55:11.103Z,20.55
2022-11-12T18:57:38.472Z,17.35
2022-11-12T19:00:05.975Z,15.25
2022-11-12T19:02:33.281Z,21.38
2022-11-12T19:05:00.532Z,37.20
2022-11-12T19:07:27.837Z,19.83
2022-11-12T19:09:55.133Z,18.33
2022-11-12T19:12:22.434Z,18.55
2022-11-12T19:14:49.737Z,24.90
2022-11-12T19:17:17.007Z,15.02
2022-11-12T19:19:44.272Z,23.27
2022-11-12T19:22:11.544Z,21.25
2022-11-12T19:24:38.894Z,17.40
2022-11-12T19:27:06.227Z,17.67
2022-11-12T19:29:33.512Z,17.95
2022-11-12T19:32:00.803Z,19.33
2022-11-12T19:34:28.318Z,21.15
2022-11-12T19:37:11.995Z,18.98
2022-11-12T19:39:42.833Z,17.63
2022-11-12T19:42:10.099Z,14.55
2022-11-12T19:44:37.414Z,20.95
2022-11-12T19:47:04.760Z,19.42
2022-11-12T19:49:32.029Z,23.95
2022-11-12T19:51:59.495Z,18.98
2022-11-12T19:54:26.801Z,19.55
2022-11-12T19:56:54.105Z,24.02
2022-11-12T19:59:21.344Z,18.10
2022-11-12T20:01:48.625Z,18.60
2022-11-12T20:04:20.100Z,20.63
2022-11-12T20:06:50.289Z,17.27
2022-11-12T20:09:17.624Z,17.90
2022-11-12T20:11:44.919Z,21.00
2022-11-12T20:14:12.240Z,17.70
2022-11-12T20:16:39.747Z,18.95
2022-11-12T20:19:07.016Z,19.23
2022-11-12T20:21:34.306Z,15.43
2022-11-12T20:24:02.052Z,19.15
2022-11-12T20:26:29.317Z,17.20
2022-11-12T20:28:56.556Z,15.23
2022-11-12T20:31:23.884Z,16.70
2022-11-12T20:33:51.860Z,13.05
2022-11-12T20:36:20.808Z,17.55
2022-11-12T20:38:50.040Z,17.58
2022-11-12T20:41:19.019Z,17.27
2022-11-12T20:43:46.601Z,20.23
2022-11-12T20:46:14.122Z,22.52
2022-11-12T20:48:43.600Z,17.38
2022-11-12T20:51:25.548Z,14.30
2022-11-12T20:53:59.928Z,20.15
2022-11-12T20:56:28.583Z,18.23
2022-11-12T20:58:55.837Z,19.23
2022-11-12T21:01:23.916Z,17.77
2022-11-12T21:03:51.273Z,20.77
2022-11-12T21:06:20.029Z,23.30
2022-11-12T21:08:47.340Z,19.02
2022-11-12T21:11:16.045Z,18.35
2022-11-12T21:13:43.830Z,19.17
2022-11-12T21:16:11.586Z,12.32
2022-11-12T21:18:39.308Z,14.23
2022-11-12T21:21:11.104Z,17.98
2022-11-12T21:23:39.740Z,17.92
2022-11-12T21:26:08.473Z,16.00
2022-11-12T21:28:38.249Z,18.00
2022-11-12T21:31:06.951Z,17.02
2022-11-12T21:33:34.373Z,16.35
2022-11-12T21:36:01.937Z,16.40
2022-11-12T21:38:29.981Z,20.70
2022-11-12T21:41:07.544Z,23.77
2022-11-12T21:43:38.681Z,18.30
2022-11-12T21:48:33.519Z,13.63
2022-11-12T21:51:07.793Z,22.33
2022-11-12T21:53:35.134Z,20.05
2022-11-12T21:56:03.457Z,19.73
2022-11-12T21:58:30.821Z,20.83
2022-11-12T22:01:06.902Z,18.85
2022-11-12T22:03:34.298Z,17.48
2022-11-12T22:06:01.953Z,19.05
2022-11-12T22:08:29.628Z,18.75
2022-11-12T22:11:06.299Z,22.55
2022-11-12T22:13:34.109Z,14.25
2022-11-12T22:16:05.164Z,20.83
2022-11-12T22:18:34.349Z,28.25
2022-11-12T22:21:05.705Z,19.30
2022-11-12T22:23:35.957Z,22.45
2022-11-12T22:26:07.095Z,24.70
2022-11-12T22:31:08.438Z,20.70
2022-11-12T22:33:35.725Z,16.98
2022-11-12T22:36:03.851Z,16.73
2022-11-12T22:38:35.089Z,18.55
2022-11-12T22:41:05.998Z,19.15
2022-11-12T22:43:33.286Z,20.98
2022-11-12T22:46:06.697Z,18.40
2022-11-12T22:48:34.342Z,22.05
2022-11-12T22:51:02.100Z,21.58
2022-11-12T22:53:29.918Z,20.48
2022-11-12T22:56:02.265Z,16.00
2022-11-12T22:58:29.999Z,19.63
2022-11-12T23:00:57.964Z,16.65
2022-11-12T23:03:25.337Z,19.65
2022-11-12T23:06:03.211Z,22.50
2022-11-12T23:08:30.975Z,18.63
2022-11-12T23:10:58.755Z,17.67
2022-11-12T23:13:27.348Z,21.77
2022-11-12T23:15:54.644Z,18.75
2022-11-12T23:18:21.930Z,17.65
2022-11-12T23:20:49.194Z,14.00
2022-11-12T23:23:17.029Z,13.70
2022-11-12T23:25:44.828Z,19.80
2022-11-12T23:28:12.101Z,14.65
2022-11-12T23:30:39.523Z,14.13
2022-11-12T23:33:06.835Z,18.63
2022-11-12T23:35:34.103Z,23.15
2022-11-12T23:38:01.322Z,14.05
2022-11-12T23:40:31.103Z,14.25
2022-11-12T23:42:58.653Z,13.68
2022-11-12T23:45:25.910Z,16.65
2022-11-12T23:47:54.250Z,13.60
2022-11-12T23:50:21.515Z,18.00
2022-11-12T23:52:48.871Z,13.95
2022-11-12T23:55:16.166Z,18.13
2022-11-12T23:57:43.429Z,12.90
